Time;durP1;ratioP1;P1;durP2;ratioP2;P2;SDS_P1;SDS_P2;PMS_P1;PMS_P2;Temp;Humidity;BMP_temperature;BMP_pressure;BME280_temperature;BME280_humidity;BME280_pressure;Samples;Min_cycle;Max_cycle;Signal;HPM_P1;HPM_P2
2021/08/16 00:01:09;;;;;;;15.50;3.20;;;;;;;19.93;66.79;100961.75;5086351;28;20228;-74
2021/08/16 00:03:34;;;;;;;9.80;2.80;;;;;;;20.26;66.61;100964.53;5069041;28;20061;-74
2021/08/16 00:06:00;;;;;;;16.33;3.55;;;;;;;20.07;65.88;100962.50;5104267;28;20327;-74
2021/08/16 00:08:25;;;;;;;9.23;2.50;;;;;;;20.13;66.35;100965.50;5069098;28;20046;-74
2021/08/16 00:10:51;;;;;;;8.63;2.63;;;;;;;20.11;66.18;100962.09;5104099;28;20110;-74
2021/08/16 00:13:16;;;;;;;13.02;3.65;;;;;;;19.87;67.13;100950.75;5085941;28;20035;-74
2021/08/16 00:15:42;;;;;;;12.55;3.03;;;;;;;20.09;67.03;100952.56;5085778;28;20036;-74
2021/08/16 00:18:07;;;;;;;10.52;2.97;;;;;;;19.94;66.52;100958.13;5086081;28;20044;-74
2021/08/16 00:20:33;;;;;;;13.02;2.75;;;;;;;20.42;66.46;100956.16;5103637;28;20039;-74
2021/08/16 00:22:58;;;;;;;13.55;3.22;;;;;;;19.89;67.04;100944.34;5086217;28;20058;-74
2021/08/16 00:25:24;;;;;;;4.93;2.33;;;;;;;20.64;65.26;100950.81;5085078;28;20024;-74
2021/08/16 00:27:49;;;;;;;10.30;2.88;;;;;;;19.85;66.16;100947.38;5069044;28;20046;-74
2021/08/16 00:30:15;;;;;;;8.60;2.55;;;;;;;20.64;65.11;100950.81;5085526;28;20094;-74
2021/08/16 00:32:40;;;;;;;19.00;4.05;;;;;;;19.62;67.19;100949.13;5103520;28;20323;-74
2021/08/16 00:35:06;;;;;;;8.52;2.90;;;;;;;19.98;67.06;100944.59;5069051;28;20020;-74
2021/08/16 00:37:31;;;;;;;17.80;2.70;;;;;;;20.10;67.07;100947.16;5103661;28;20112;-74
2021/08/16 00:39:57;;;;;;;8.48;2.53;;;;;;;20.03;66.26;100943.28;5085615;28;20338;-74
2021/08/16 00:42:22;;;;;;;11.57;2.97;;;;;;;19.90;66.75;100937.22;5068479;28;20032;-74
2021/08/16 00:44:48;;;;;;;12.65;3.58;;;;;;;19.69;67.63;100945.03;5085260;28;20028;-74
2021/08/16 00:47:14;;;;;;;7.55;2.38;;;;;;;20.33;66.10;100947.94;5103178;28;20042;-74
2021/08/16 00:49:40;;;;;;;17.70;2.95;;;;;;;19.73;67.01;100944.69;5068494;28;20098;-74
2021/08/16 00:52:06;;;;;;;7.20;2.00;;;;;;;20.14;66.36;100943.25;5103626;28;20058;-74
2021/08/16 00:54:31;;;;;;;13.23;3.42;;;;;;;19.51;67.88;100948.13;5067902;28;20371;-74
2021/08/16 00:57:03;;;;;;;9.95;2.67;;;;;;;19.95;67.14;100951.00;5068706;28;20039;-74
2021/08/16 00:59:29;;;;;;;12.45;2.90;;;;;;;20.01;66.99;100953.19;5067925;28;20318;-75
2021/08/16 01:01:55;;;;;;;15.75;3.67;;;;;;;19.91;67.35;100950.38;5068563;28;20087;-75
2021/08/16 01:04:20;;;;;;;10.65;3.28;;;;;;;19.59;68.60;100952.00;5102720;28;20044;-74
2021/08/16 01:06:46;;;;;;;13.85;3.33;;;;;;;19.75;68.02;100948.09;5103158;28;20215;-74
2021/08/16 01:09:12;;;;;;;12.48;2.97;;;;;;;19.72;67.77;100948.31;5084938;28;20027;-74
2021/08/16 01:11:37;;;;;;;13.73;2.85;;;;;;;19.54;68.43;100947.91;5084792;28;20046;-74
2021/08/16 01:14:03;;;;;;;9.73;2.58;;;;;;;19.61;68.45;100942.97;5085052;28;20049;-74
2021/08/16 01:16:28;;;;;;;9.52;2.85;;;;;;;19.57;68.49;100941.50;5084306;28;20380;-74
2021/08/16 01:18:54;;;;;;;8.32;2.50;;;;;;;19.91;67.46;100945.06;5068036;28;20070;-74
2021/08/16 01:21:19;;;;;;;13.93;2.83;;;;;;;19.35;69.10;100944.97;5067681;28;20038;-74
2021/08/16 01:23:45;;;;;;;13.32;3.55;;;;;;;19.70;68.13;100941.41;5067738;28;20043;-74
2021/08/16 01:26:11;;;;;;;6.22;2.55;;;;;;;19.97;67.08;100934.94;5067966;28;20066;-74
2021/08/16 01:28:36;;;;;;;14.82;3.20;;;;;;;19.27;69.29;100942.06;5067470;28;20367;-74
2021/08/16 01:31:04;;;;;;;14.35;3.00;;;;;;;19.82;67.44;100948.44;5085061;28;20054;-74
2021/08/16 01:33:29;;;;;;;6.93;2.40;;;;;;;19.47;69.00;100936.06;5102125;28;20031;-74
2021/08/16 01:35:55;;;;;;;9.88;2.78;;;;;;;20.31;65.87;100939.25;5068225;28;20020;-74
2021/08/16 01:38:21;;;;;;;5.25;2.25;;;;;;;20.65;65.11;100943.72;5084040;28;20039;-74
2021/08/16 01:40:47;;;;;;;12.68;3.15;;;;;;;19.72;67.75;100937.69;5067649;28;20024;-74
2021/08/16 01:43:12;;;;;;;8.35;2.47;;;;;;;19.88;67.41;100929.38;5102060;28;20059;-74
2021/08/16 01:45:38;;;;;;;13.95;3.05;;;;;;;19.67;68.15;100933.69;5084235;28;20099;-74
2021/08/16 01:48:04;;;;;;;12.32;2.67;;;;;;;19.02;70.40;100933.28;5084529;28;20039;-74
2021/08/16 01:50:30;;;;;;;9.75;2.50;;;;;;;19.80;67.77;100926.47;5083835;28;20031;-74
2021/08/16 01:52:55;;;;;;;13.35;3.17;;;;;;;19.12;70.37;100934.28;5084284;28;20028;-74
2021/08/16 01:55:21;;;;;;;14.70;2.78;;;;;;;19.33;69.57;100938.91;5101770;28;20035;-74
2021/08/16 01:57:47;;;;;;;11.60;3.08;;;;;;;19.40;69.58;100934.84;5084017;28;20057;-74
2021/08/16 02:00:12;;;;;;;11.57;2.72;;;;;;;19.43;69.46;100931.09;5067307;28;20327;-73
2021/08/16 02:02:38;;;;;;;7.20;2.70;;;;;;;19.54;69.02;100936.44;5067213;28;20095;-74
2021/08/16 02:05:04;;;;;;;13.50;2.97;;;;;;;19.67;68.34;100939.84;5084000;28;20320;-74
2021/08/16 02:07:30;;;;;;;11.32;2.83;;;;;;;19.86;67.69;100928.63;5066654;28;20239;-74
2021/08/16 02:09:55;;;;;;;11.90;2.50;;;;;;;19.94;67.22;100925.41;5050485;28;20055;-74
2021/08/16 02:12:21;;;;;;;10.90;2.72;;;;;;;19.37;69.73;100925.31;5083497;28;20036;-74
2021/08/16 02:14:46;;;;;;;7.07;2.00;;;;;;;19.96;67.20;100931.44;5083725;28;20062;-74
2021/08/16 02:17:11;;;;;;;6.45;2.40;;;;;;;20.87;64.11;100937.47;5101506;28;20035;-74
2021/08/16 02:19:37;;;;;;;10.52;2.33;;;;;;;20.98;63.41;100926.75;5101610;28;20359;-74
2021/08/16 02:22:03;;;;;;;11.35;2.05;;;;;;;20.30;65.61;100929.59;5083700;28;20042;-74
2021/08/16 02:24:28;;;;;;;7.53;2.00;;;;;;;20.64;64.59;100931.34;5083608;28;20043;-72
2021/08/16 02:26:54;;;;;;;8.85;2.75;;;;;;;20.56;65.29;100936.44;5101802;28;20043;-72
2021/08/16 02:29:19;;;;;;;9.73;2.45;;;;;;;20.40;65.96;100932.34;5101135;28;20264;-72
2021/08/16 02:31:45;;;;;;;11.95;3.05;;;;;;;19.55;69.12;100930.16;5101376;28;20036;-72
2021/08/16 02:34:10;;;;;;;13.40;2.85;;;;;;;19.88;68.05;100940.03;5066674;28;20058;-71
2021/08/16 02:36:35;;;;;;;5.95;2.28;;;;;;;20.25;66.40;100930.94;5082724;28;20038;-71
2021/08/16 02:39:01;;;;;;;8.63;2.53;;;;;;;19.92;67.74;100935.31;5083306;28;20040;-71
2021/08/16 02:41:27;;;;;;;5.28;2.00;;;;;;;20.36;65.62;100925.59;5082579;28;20038;-71
2021/08/16 02:43:52;;;;;;;8.68;2.55;;;;;;;20.08;66.78;100926.94;5083012;28;20121;-71
2021/08/16 02:46:19;;;;;;;10.50;2.30;;;;;;;20.38;65.74;100931.63;5100941;28;20095;-71
2021/08/16 02:48:45;;;;;;;14.57;3.05;;;;;;;19.88;67.69;100934.69;5100884;28;20023;-71
2021/08/16 02:51:10;;;;;;;11.25;2.30;;;;;;;20.74;64.18;100929.66;5101302;28;20024;-71
2021/08/16 02:53:36;;;;;;;6.53;1.83;;;;;;;20.47;65.44;100933.53;5065751;28;20031;-71
2021/08/16 02:56:01;;;;;;;12.68;2.75;;;;;;;19.91;67.24;100929.13;5101381;28;20028;-71
2021/08/16 02:58:27;;;;;;;13.77;2.67;;;;;;;19.91;67.49;100929.13;5100685;28;20059;-71
2021/08/16 03:00:52;;;;;;;14.63;2.70;;;;;;;19.77;68.08;100933.84;5083283;28;20212;-74
2021/08/16 03:03:17;;;;;;;14.45;2.95;;;;;;;19.43;69.20;100934.59;5100581;28;20115;-74
2021/08/16 03:05:43;;;;;;;6.38;2.35;;;;;;;19.91;67.39;100925.63;5082589;28;20040;-74
2021/08/16 03:08:08;;;;;;;5.90;2.30;;;;;;;20.41;65.58;100912.78;5082855;28;20024;-74
2021/08/16 03:10:34;;;;;;;12.43;2.33;;;;;;;19.88;67.23;100918.75;5064078;28;20038;-74
2021/08/16 03:13:00;;;;;;;5.95;2.35;;;;;;;19.94;66.93;100925.41;5099734;28;20250;-74
2021/08/16 03:15:26;;;;;;;6.00;2.25;;;;;;;19.94;67.24;100920.91;5099974;28;20043;-74
2021/08/16 03:17:51;;;;;;;7.35;2.25;;;;;;;19.73;67.79;100926.09;5082801;28;20028;-74
2021/08/16 03:20:17;;;;;;;6.45;1.83;;;;;;;19.38;69.42;100918.19;5082049;28;20354;-74
2021/08/16 03:22:42;;;;;;;8.27;2.60;;;;;;;19.51;68.66;100918.91;5082362;28;20020;-74
2021/08/16 03:25:09;;;;;;;9.85;2.90;;;;;;;19.35;69.61;100913.09;5100624;28;20036;-74
2021/08/16 03:27:34;;;;;;;7.15;2.03;;;;;;;19.56;68.91;100915.91;5082016;28;20055;-74
2021/08/16 03:30:02;;;;;;;13.65;2.70;;;;;;;19.54;68.78;100913.38;5081430;28;20043;-74
2021/08/16 03:32:27;;;;;;;10.95;3.10;;;;;;;19.11;70.37;100908.69;5082176;28;20315;-74
2021/08/16 03:34:53;;;;;;;13.00;3.10;;;;;;;19.30;69.73;100908.16;5100429;28;20087;-74
2021/08/16 03:37:18;;;;;;;9.25;2.45;;;;;;;18.80;71.95;100912.75;5100119;28;20059;-75
2021/08/16 03:39:43;;;;;;;9.02;2.88;;;;;;;19.25;69.72;100907.66;5100577;28;20059;-74
2021/08/16 03:42:09;;;;;;;7.50;1.55;;;;;;;19.40;69.49;100908.28;5100383;28;20234;-74
2021/08/16 03:44:34;;;;;;;12.82;2.53;;;;;;;19.21;70.20;100919.47;5099607;28;20052;-74
2021/08/16 03:47:00;;;;;;;9.02;2.53;;;;;;;19.26;69.96;100908.50;5100424;28;20035;-75
2021/08/16 03:49:25;;;;;;;6.72;1.75;;;;;;;19.34;69.18;100908.75;5048272;28;20137;-74
2021/08/16 03:51:51;;;;;;;6.47;1.65;;;;;;;19.16;70.20;100898.56;5100508;28;20067;-74
2021/08/16 03:54:16;;;;;;;8.48;2.08;;;;;;;19.32;69.94;100889.44;5099847;28;20032;-74
2021/08/16 03:56:42;;;;;;;9.23;2.63;;;;;;;19.15;70.25;100894.22;5082221;28;20303;-74
2021/08/16 03:59:07;;;;;;;8.82;2.15;;;;;;;19.09;70.56;100905.31;5082267;28;20040;-74
2021/08/16 04:01:33;;;;;;;11.05;2.40;;;;;;;18.59;72.01;100892.19;5099813;28;20039;-75
2021/08/16 04:04:01;;;;;;;8.23;1.98;;;;;;;19.19;69.79;100884.19;5082332;28;20204;-75
2021/08/16 04:06:26;;;;;;;5.82;2.10;;;;;;;19.94;67.17;100891.69;5082152;28;20054;-74
2021/08/16 04:08:52;;;;;;;9.23;2.83;;;;;;;19.42;68.68;100885.09;5082419;28;20032;-74
2021/08/16 04:11:18;;;;;;;6.80;2.38;;;;;;;20.42;65.39;100903.81;5099828;28;20032;-74
2021/08/16 04:13:43;;;;;;;12.25;2.30;;;;;;;19.45;68.84;100884.88;5082010;28;20314;-74
2021/08/16 04:16:09;;;;;;;6.70;2.40;;;;;;;19.05;70.44;100889.75;5082082;28;20326;-74
2021/08/16 04:18:34;;;;;;;3.95;1.77;;;;;;;20.00;66.74;100892.16;5081530;28;20089;-74
2021/08/16 04:21:00;;;;;;;8.55;2.28;;;;;;;19.69;67.93;100887.41;5082033;28;20081;-74
2021/08/16 04:23:25;;;;;;;9.68;2.83;;;;;;;19.52;68.64;100886.09;5099796;28;20032;-74
2021/08/16 04:25:51;;;;;;;14.88;2.88;;;;;;;19.41;69.00;100882.56;5065062;28;20320;-74
2021/08/16 04:28:16;;;;;;;9.38;2.33;;;;;;;19.23;70.34;100890.13;5099516;28;20285;-75
2021/08/16 04:30:41;;;;;;;10.80;2.30;;;;;;;19.21;71.23;100886.75;5081838;28;20036;-75
2021/08/16 04:33:07;;;;;;;11.70;2.75;;;;;;;19.15;71.48;100888.06;5065126;28;20027;-75
2021/08/16 04:35:33;;;;;;;7.15;1.75;;;;;;;19.46;69.45;100885.72;5081540;28;20036;-75
2021/08/16 04:37:58;;;;;;;5.80;2.22;;;;;;;19.79;68.55;100892.03;5099772;28;20036;-75
2021/08/16 04:40:23;;;;;;;9.50;2.25;;;;;;;20.07;66.58;100886.22;5081370;28;20035;-75
2021/08/16 04:42:49;;;;;;;6.57;1.88;;;;;;;19.69;68.16;100890.06;5085046;28;20332;-75
2021/08/16 04:45:14;;;;;;;12.32;2.60;;;;;;;19.67;68.98;100889.34;5103164;28;20035;-76
2021/08/16 04:47:44;;;;;;;5.45;1.98;;;;;;;19.57;68.99;100893.69;5103466;28;20028;-75
2021/08/16 04:50:10;;;;;;;16.02;2.88;;;;;;;18.97;72.85;100896.47;5103550;28;20352;-75
2021/08/16 04:52:35;;;;;;;8.18;2.35;;;;;;;19.29;71.23;100901.13;5084722;28;20042;-75
2021/08/16 04:55:01;;;;;;;5.70;1.90;;;;;;;20.99;64.26;100923.13;5068480;28;20223;-75
2021/08/16 04:57:28;;;;;;;2.13;1.20;;;;;;;21.99;59.50;100922.63;5051512;28;20039;-74
2021/08/16 04:59:54;;;;;;;2.47;1.20;;;;;;;20.80;63.89;100920.31;5085575;28;20035;-75
2021/08/16 05:02:19;;;;;;;2.78;1.58;;;;;;;20.98;63.14;100916.13;5102884;28;20032;-75
2021/08/16 05:04:46;;;;;;;3.58;1.33;;;;;;;20.42;66.24;100921.59;5084834;28;20036;-75
2021/08/16 05:07:12;;;;;;;6.72;1.55;;;;;;;19.71;68.37;100912.06;5084751;28;20251;-75
2021/08/16 05:09:38;;;;;;;2.17;1.42;;;;;;;20.06;67.30;100916.44;5102783;28;20039;-75
2021/08/16 05:12:03;;;;;;;3.58;1.30;;;;;;;19.94;67.70;100912.94;5085072;28;20233;-75
2021/08/16 05:14:29;;;;;;;2.67;1.27;;;;;;;19.21;70.88;100918.59;5102458;28;20040;-75
2021/08/16 05:16:54;;;;;;;3.50;1.40;;;;;;;20.07;66.66;100912.81;5084738;28;20036;-75
2021/08/16 05:19:20;;;;;;;2.38;1.60;;;;;;;20.13;66.58;100914.97;5084550;28;20231;-75
2021/08/16 05:21:45;;;;;;;4.78;1.55;;;;;;;20.11;68.13;100918.72;5084675;28;20040;-75
2021/08/16 05:24:10;;;;;;;6.03;1.92;;;;;;;19.64;69.89;100917.97;5084867;28;20118;-75
2021/08/16 05:26:36;;;;;;;1.17;1.08;;;;;;;21.14;62.55;100923.66;5102689;28;20036;-75
2021/08/16 05:29:01;;;;;;;4.18;1.50;;;;;;;21.52;61.37;100918.75;5067794;28;20051;-75
2021/08/16 05:31:27;;;;;;;1.52;0.82;;;;;;;21.74;60.37;100918.59;5083891;28;20026;-75
2021/08/16 05:33:52;;;;;;;1.80;1.08;;;;;;;21.05;63.23;100922.63;5084510;28;20035;-75
2021/08/16 05:36:18;;;;;;;3.08;1.20;;;;;;;21.24;61.58;100924.56;5084282;28;20384;-75
2021/08/16 05:38:45;;;;;;;2.72;1.13;;;;;;;20.61;64.66;100924.50;5102477;28;20036;-75
2021/08/16 05:41:11;;;;;;;2.60;1.20;;;;;;;21.01;62.77;100933.63;5084554;28;20124;-75
2021/08/16 05:43:37;;;;;;;2.17;1.15;;;;;;;21.62;60.95;100939.13;5084294;28;20051;-75
2021/08/16 05:46:02;;;;;;;3.30;1.55;;;;;;;21.69;60.23;100942.13;5084419;28;20039;-74
2021/08/16 05:48:27;;;;;;;3.08;1.20;;;;;;;20.61;64.18;100948.44;5083884;28;20069;-75
2021/08/16 05:50:53;;;;;;;1.35;0.95;;;;;;;20.47;64.44;100951.31;5084332;28;20039;-75
2021/08/16 05:53:18;;;;;;;4.10;1.65;;;;;;;19.50;69.20;100945.59;5066327;28;20062;-75
2021/08/16 05:55:44;;;;;;;2.45;1.10;;;;;;;20.60;64.16;100949.34;5101913;28;20038;-75
2021/08/16 05:58:10;;;;;;;2.88;1.50;;;;;;;20.14;65.60;100945.91;5102398;28;20323;-75
2021/08/16 06:00:35;;;;;;;7.35;2.08;;;;;;;19.21;70.13;100948.69;5101657;28;20042;-75
2021/08/16 06:03:01;;;;;;;6.05;1.67;;;;;;;20.11;66.02;100948.81;5102221;28;20335;-75
2021/08/16 06:05:26;;;;;;;1.98;0.95;;;;;;;20.29;65.40;100948.34;5083429;28;20036;-75
2021/08/16 06:07:52;;;;;;;3.42;1.20;;;;;;;19.78;67.32;100954.13;5084165;28;20058;-75
2021/08/16 06:10:17;;;;;;;3.95;1.45;;;;;;;20.08;65.76;100958.84;5101609;28;20027;-75
2021/08/16 06:12:43;;;;;;;4.15;1.63;;;;;;;19.52;67.89;100960.47;5067165;28;20331;-75
2021/08/16 06:15:09;;;;;;;4.07;2.00;;;;;;;19.03;70.48;100958.84;5101894;28;20054;-74
2021/08/16 06:17:37;;;;;;;7.22;2.30;;;;;;;18.82;70.78;100961.28;5083428;28;20099;-75
2021/08/16 06:20:04;;;;;;;2.17;1.30;;;;;;;20.48;64.17;100961.84;5101996;28;20036;-75
2021/08/16 06:22:30;;;;;;;7.03;2.40;;;;;;;19.39;68.70;100970.31;5083344;28;20036;-75
2021/08/16 06:24:56;;;;;;;7.43;2.20;;;;;;;18.30;73.97;100968.53;5083827;28;20368;-75
2021/08/16 06:27:21;;;;;;;4.47;2.17;;;;;;;18.22;74.82;100982.31;5066603;28;20059;-75
2021/08/16 06:29:46;;;;;;;9.60;1.75;;;;;;;19.02;71.03;100974.91;5066512;28;20239;-75
2021/08/16 06:32:12;;;;;;;5.15;2.08;;;;;;;19.16;69.55;100985.34;5079163;28;20038;-74
2021/08/16 06:34:41;;;;;;;8.48;2.38;;;;;;;19.21;69.21;100984.97;5080229;28;20066;-74
2021/08/16 06:37:06;;;;;;;;;;;;;;;18.65;72.40;100989.00;5081151;28;20071;-75
2021/08/16 06:39:32;;;;;;;4.40;2.37;;;;;;;18.75;70.90;100992.69;5064262;28;19915;-75
2021/08/16 06:41:57;;;;;;;6.40;1.90;;;;;;;19.23;69.52;100999.84;5088461;28;20286;-75
2021/08/16 06:44:23;;;;;;;4.00;1.70;;;;;;;19.01;69.79;101008.56;5080527;28;20024;-74
2021/08/16 06:46:49;;;;;;;5.10;1.70;;;;;;;19.73;66.97;101008.47;5081221;28;20028;-74
2021/08/16 06:49:15;;;;;;;7.80;2.17;;;;;;;19.55;67.50;101013.38;5062260;28;20047;-74
2021/08/16 06:51:40;;;;;;;4.47;2.08;;;;;;;18.92;69.78;101022.50;5080494;28;20032;-74
2021/08/16 06:54:06;;;;;;;3.83;1.65;;;;;;;19.75;67.23;101019.84;5060854;28;20185;-75
2021/08/16 06:56:31;;;;;;;4.45;1.80;;;;;;;19.29;68.41;101030.41;5070688;28;20232;-75
2021/08/16 06:58:57;;;;;;;3.28;1.52;;;;;;;19.19;68.94;101038.19;5080558;28;20028;-75
2021/08/16 07:01:23;;;;;;;5.90;2.35;;;;;;;19.30;68.27;101030.28;5062196;28;20038;-75
2021/08/16 07:03:49;;;;;;;8.32;2.03;;;;;;;19.59;66.15;101029.88;5063911;28;20111;-75
2021/08/16 07:06:15;;;;;;;3.35;2.20;;;;;;;20.21;64.02;101028.72;5063551;28;20028;-75
2021/08/16 07:08:40;;;;;;;5.05;2.30;;;;;;;19.48;66.07;101032.50;5048751;28;20027;-74
2021/08/16 07:11:05;;;;;;;6.72;2.25;;;;;;;18.52;70.57;101031.50;5073755;28;20448;-74
2021/08/16 07:13:31;;;;;;;3.20;1.40;;;;;;;19.15;68.80;101031.41;5100257;28;20050;-75
2021/08/16 07:15:56;;;;;;;12.20;2.55;;;;;;;18.58;70.98;101033.69;5054562;28;20182;-75
2021/08/16 07:18:22;;;;;;;8.77;2.70;;;;;;;18.71;69.82;101032.81;5079719;28;20328;-75
2021/08/16 07:20:48;;;;;;;5.05;1.88;;;;;;;19.01;68.46;101045.72;5079871;28;20353;-75
2021/08/16 07:23:13;;;;;;;2.78;1.20;;;;;;;20.13;64.67;101034.63;5061763;28;20050;-75
2021/08/16 07:25:38;;;;;;;3.05;1.63;;;;;;;20.43;63.27;101043.81;5062208;28;20028;-75
2021/08/16 07:28:04;;;;;;;1.38;0.98;;;;;;;20.47;63.78;101039.13;5061794;28;20024;-75
2021/08/16 07:30:30;;;;;;;12.65;2.65;;;;;;;20.06;63.82;101036.06;5052915;28;20047;-75
2021/08/16 07:32:55;;;;;;;4.32;1.85;;;;;;;20.17;64.43;101037.03;5063421;28;20055;-75
2021/08/16 07:35:21;;;;;;;6.03;2.08;;;;;;;20.10;63.82;101048.16;5088021;28;20027;-75
2021/08/16 07:37:46;;;;;;;4.90;1.80;;;;;;;20.05;64.51;101053.00;5079494;28;20115;-75
2021/08/16 07:40:12;;;;;;;9.60;2.33;;;;;;;19.79;64.74;101054.97;5079689;28;20029;-75
2021/08/16 07:42:39;;;;;;;7.15;2.60;;;;;;;20.77;61.91;101057.13;5063418;28;20042;-74
2021/08/16 07:45:05;;;;;;;6.80;1.80;;;;;;;19.84;63.99;101049.31;5045352;28;20029;-75
2021/08/16 07:47:30;;;;;;;7.53;1.88;;;;;;;20.54;62.61;101056.28;5061279;28;20048;-74
2021/08/16 07:49:56;;;;;;;6.35;2.65;;;;;;;21.14;60.23;101054.16;5079755;28;20127;-75
2021/08/16 07:52:21;;;;;;;4.20;1.83;;;;;;;21.80;59.05;101062.00;5062163;28;20298;-75
2021/08/16 07:54:46;;;;;;;2.53;1.45;;;;;;;22.14;56.96;101067.13;5051307;28;20035;-74
2021/08/16 07:57:12;;;;;;;3.38;1.92;;;;;;;21.33;59.42;101074.78;5057657;28;20044;-75
2021/08/16 07:59:37;;;;;;;3.35;1.83;;;;;;;21.63;58.73;101074.09;5089428;28;20044;-75
2021/08/16 08:02:03;;;;;;;4.97;2.00;;;;;;;21.22;59.52;101080.16;5087005;28;20032;-75
2021/08/16 08:04:28;;;;;;;6.13;3.70;;;;;;;21.26;59.20;101079.75;5088301;28;20324;-75
2021/08/16 08:06:54;;;;;;;13.50;4.07;;;;;;;20.18;60.84;101090.09;5087182;28;20040;-75
2021/08/16 08:09:20;;;;;;;5.97;2.25;;;;;;;20.58;62.23;101081.66;5074512;28;20040;-75
2021/08/16 08:11:46;;;;;;;5.18;2.80;;;;;;;20.19;62.03;101091.78;5064872;28;20040;-75
2021/08/16 08:14:12;;;;;;;4.68;1.88;;;;;;;21.06;58.81;101092.03;5079792;28;20039;-75
2021/08/16 08:16:37;;;;;;;7.10;3.38;;;;;;;20.55;61.35;101097.03;5081250;28;20070;-75
2021/08/16 08:19:02;;;;;;;15.13;3.97;;;;;;;20.58;61.37;101097.63;5083803;28;20223;-75
2021/08/16 08:21:28;;;;;;;16.33;4.80;;;;;;;20.58;61.08;101092.31;5083280;28;20029;-75
2021/08/16 08:23:53;;;;;;;5.47;1.75;;;;;;;21.99;58.10;101101.28;5065921;28;20036;-75
2021/08/16 08:26:19;;;;;;;8.15;2.42;;;;;;;21.91;58.21;101114.41;5061825;28;20327;-75
2021/08/16 08:28:44;;;;;;;4.30;2.53;;;;;;;21.81;57.78;101109.00;5065524;28;20134;-75
2021/08/16 08:31:10;;;;;;;5.80;3.13;;;;;;;21.21;57.90;101105.94;5066208;28;20067;-75
2021/08/16 08:33:37;;;;;;;5.70;2.53;;;;;;;21.59;57.24;101107.31;5092734;28;20085;-74
2021/08/16 08:36:03;;;;;;;4.78;2.47;;;;;;;22.36;56.37;101100.81;5069315;28;20024;-75
2021/08/16 08:38:28;;;;;;;5.65;2.30;;;;;;;23.06;54.68;101103.63;5068196;28;20030;-74
2021/08/16 08:40:56;;;;;;;5.15;2.45;;;;;;;23.27;53.92;101116.06;5101391;28;20365;-75
2021/08/16 08:43:22;;;;;;;3.00;1.90;;;;;;;23.05;54.27;101117.09;5054946;28;20028;-75
2021/08/16 08:45:47;;;;;;;1.40;1.20;;;;;;;23.13;54.02;101120.78;5052421;28;20201;-75
2021/08/16 08:48:17;;;;;;;5.28;2.80;;;;;;;23.05;54.08;101122.44;5048370;28;20032;-75
2021/08/16 08:50:42;;;;;;;2.10;1.58;;;;;;;23.36;53.53;101131.25;5082925;28;20043;-75
2021/08/16 08:53:08;;;;;;;5.10;1.88;;;;;;;23.12;53.31;101129.78;5054960;28;20059;-75
2021/08/16 08:55:33;;;;;;;3.80;1.55;;;;;;;23.26;53.66;101128.53;5080781;28;20188;-75
2021/08/16 08:58:00;;;;;;;3.03;2.05;;;;;;;23.12;51.73;101135.16;5059378;28;20091;-75
2021/08/16 09:00:26;;;;;;;4.30;1.77;;;;;;;22.91;53.23;101145.84;5068262;28;20342;-75
2021/08/16 09:02:59;;;;;;;1.95;1.27;;;;;;;23.23;53.75;101142.19;5083560;28;20036;-75
2021/08/16 09:05:24;;;;;;;3.38;1.88;;;;;;;23.08;54.10;101141.72;5064648;28;20060;-75
2021/08/16 09:07:50;;;;;;;6.20;3.38;;;;;;;23.17;53.52;101145.41;5064589;28;20024;-75
2021/08/16 09:10:16;;;;;;;4.40;2.15;;;;;;;22.95;54.26;101157.94;5064688;28;20141;-75
2021/08/16 09:12:42;;;;;;;3.90;2.08;;;;;;;23.06;53.94;101142.84;5048200;28;20348;-75
2021/08/16 09:15:21;;;;;;;1.98;1.80;;;;;;;23.13;53.83;101158.19;5064581;28;20046;-75
2021/08/16 09:17:47;;;;;;;4.30;2.17;;;;;;;23.29;53.80;101168.34;5084861;28;20039;-75
2021/08/16 09:20:15;;;;;;;3.28;2.22;;;;;;;23.30;52.71;101158.50;5084243;28;20066;-75
2021/08/16 09:22:40;;;;;;;4.72;2.72;;;;;;;23.45;52.60;101159.81;5084473;28;20379;-75
2021/08/16 09:25:09;;;;;;;2.45;2.25;;;;;;;23.52;52.78;101154.72;5084490;28;20035;-75
2021/08/16 09:27:42;;;;;;;;;;;;;;;23.68;52.08;101159.53;5083835;28;20047;-75
2021/08/16 09:30:08;;;;;;;4.85;2.40;;;;;;;23.41;52.98;101170.91;5084594;28;19912;-75
2021/08/16 09:32:34;;;;;;;8.05;4.28;;;;;;;23.42;52.78;101176.13;5082836;28;20215;-74
2021/08/16 09:35:06;;;;;;;2.65;2.08;;;;;;;23.62;50.45;101176.16;5063649;28;20024;-75
2021/08/16 09:37:31;;;;;;;4.35;2.15;;;;;;;23.40;52.91;101177.25;5064564;28;20045;-75
2021/08/16 09:40:09;;;;;;;6.90;3.10;;;;;;;22.95;54.62;101179.31;5064380;28;20134;-75
2021/08/16 09:42:42;;;;;;;4.53;2.47;;;;;;;23.03;53.83;101167.97;5069629;28;20036;-75
2021/08/16 09:45:08;;;;;;;3.53;2.40;;;;;;;22.75;53.10;101183.72;5063115;28;20039;-75
2021/08/16 09:47:44;;;;;;;3.45;2.17;;;;;;;22.73;52.58;101183.03;5063121;28;20031;-75
2021/08/16 09:50:11;;;;;;;5.65;3.75;;;;;;;22.62;53.30;101185.78;5080818;28;20036;-76
2021/08/16 09:52:36;;;;;;;5.03;3.00;;;;;;;23.08;53.74;101192.47;5060545;28;20307;-75
2021/08/16 09:55:02;;;;;;;4.75;3.28;;;;;;;23.48;52.29;101191.59;5080677;28;20047;-75
2021/08/16 09:57:30;;;;;;;2.45;2.25;;;;;;;23.79;51.50;101204.00;5062361;28;20290;-75
2021/08/16 09:59:56;;;;;;;3.23;2.93;;;;;;;23.23;53.10;101205.44;5053998;28;20058;-75
2021/08/16 10:02:22;;;;;;;2.90;2.10;;;;;;;23.04;53.35;101207.09;5060125;28;20328;-75
2021/08/16 10:04:48;;;;;;;3.92;2.38;;;;;;;23.00;51.84;101211.81;5082868;28;20106;-75
2021/08/16 10:07:13;;;;;;;3.13;1.92;;;;;;;23.09;53.63;101212.88;5100349;28;20035;-75
2021/08/16 10:09:39;;;;;;;6.47;2.95;;;;;;;22.76;48.75;101220.13;5051405;28;20055;-75
2021/08/16 10:12:04;;;;;;;6.35;2.90;;;;;;;22.54;53.84;101223.81;5046127;28;20033;-75
2021/08/16 10:14:33;;;;;;;7.43;2.67;;;;;;;22.52;51.29;101224.91;5080244;28;20039;-75
2021/08/16 10:16:58;;;;;;;4.53;2.63;;;;;;;22.61;53.49;101230.31;5034337;28;20023;-75
2021/08/16 10:19:25;;;;;;;4.13;2.65;;;;;;;22.87;53.44;101227.22;5050981;28;20032;-75
2021/08/16 10:21:51;;;;;;;4.55;2.47;;;;;;;23.54;51.96;101232.97;5050411;28;20024;-75
2021/08/16 10:24:18;;;;;;;3.78;2.70;;;;;;;23.57;51.93;101238.03;5059577;28;20058;-75
2021/08/16 10:27:00;;;;;;;3.30;2.28;;;;;;;23.66;51.89;101239.03;5082423;28;20275;-75
2021/08/16 10:29:26;;;;;;;2.35;2.10;;;;;;;23.25;52.70;101243.56;5082688;28;20072;-75
2021/08/16 10:31:55;;;;;;;4.72;2.95;;;;;;;22.65;52.95;101232.72;5046064;28;20016;-75
2021/08/16 10:34:40;;;;;;;3.13;2.25;;;;;;;22.62;53.89;101247.16;5062932;28;20040;-75
2021/08/16 10:37:10;;;;;;;3.50;2.47;;;;;;;22.17;52.16;101256.22;5063266;28;20331;-75
2021/08/16 10:39:40;;;;;;;4.72;2.85;;;;;;;22.37;53.21;101262.56;5080107;28;20032;-75
2021/08/16 10:42:15;;;;;;;3.58;2.80;;;;;;;22.20;53.68;101273.81;5064907;28;20077;-75
2021/08/16 10:44:51;;;;;;;3.63;2.38;;;;;;;22.27;54.87;101275.00;5063052;28;20031;-75
2021/08/16 10:47:24;;;;;;;6.93;3.55;;;;;;;21.44;55.96;101287.03;5064057;28;20307;-75
2021/08/16 10:50:03;;;;;;;2.67;2.30;;;;;;;22.01;55.86;101290.47;5053842;28;20327;-75
2021/08/16 10:52:29;;;;;;;5.30;2.65;;;;;;;22.33;54.36;101287.00;5082043;28;20054;-75
2021/08/16 10:54:54;;;;;;;3.40;2.35;;;;;;;22.38;55.03;101295.47;5101193;28;20023;-75
2021/08/16 10:57:19;;;;;;;2.28;2.05;;;;;;;22.11;55.90;101285.22;5100560;28;20204;-75
2021/08/16 10:59:45;;;;;;;4.03;2.25;;;;;;;22.29;54.59;101302.41;5082680;28;20212;-75
2021/08/16 11:02:10;;;;;;;3.17;2.65;;;;;;;21.73;53.30;101292.72;5082877;28;20028;-75
2021/08/16 11:04:37;;;;;;;6.72;3.33;;;;;;;20.93;57.64;101298.16;5100458;28;20024;-75
2021/08/16 11:07:07;;;;;;;7.40;3.72;;;;;;;21.25;56.65;101292.97;5066091;28;20036;-75
2021/08/16 11:09:34;;;;;;;2.67;2.22;;;;;;;21.96;55.15;101290.00;5082335;28;20024;-75
2021/08/16 11:12:05;;;;;;;3.88;3.00;;;;;;;20.78;54.43;101290.38;5083040;28;20067;-75
2021/08/16 11:14:32;;;;;;;4.93;2.70;;;;;;;21.31;55.54;101292.47;5082471;28;20039;-75
2021/08/16 11:16:57;;;;;;;6.97;3.35;;;;;;;20.61;56.11;101296.13;5065645;28;20020;-75
2021/08/16 11:19:25;;;;;;;6.82;3.20;;;;;;;19.76;58.96;101302.34;5082127;28;20050;-75